createdAt,value
2022-08-22T00:02:31.776Z,13.20
2022-08-22T00:05:05.993Z,14.77
2022-08-22T00:07:41.934Z,14.57
2022-08-22T00:10:12.492Z,15.80
2022-08-22T00:12:58.240Z,17.37
2022-08-22T00:15:42.132Z,15.77
2022-08-22T00:18:14.473Z,14.27
2022-08-22T00:20:44.100Z,15.60
2022-08-22T00:23:16.109Z,10.90
2022-08-22T00:25:49.128Z,12.17
2022-08-22T00:28:19.286Z,10.53
2022-08-22T00:30:54.699Z,11.13
2022-08-22T00:33:29.471Z,10.37
2022-08-22T00:36:08.724Z,9.63
2022-08-22T00:38:42.523Z,9.97
2022-08-22T00:41:16.895Z,9.00
2022-08-22T00:44:12.872Z,8.77
2022-08-22T00:47:01.691Z,8.50
2022-08-22T00:49:55.960Z,9.00
2022-08-22T00:52:38.469Z,8.63
2022-08-22T00:55:35.129Z,8.17
2022-08-22T00:58:29.705Z,9.03
2022-08-22T01:01:01.277Z,9.20
2022-08-22T01:03:41.949Z,8.40
2022-08-22T01:06:19.876Z,9.33
2022-08-22T01:08:58.147Z,8.37
2022-08-22T01:11:36.694Z,9.90
2022-08-22T01:14:13.657Z,10.00
2022-08-22T01:17:21.851Z,9.30
2022-08-22T01:20:19.484Z,10.43
2022-08-22T01:23:18.587Z,10.23
2022-08-22T01:26:22.473Z,10.93
2022-08-22T01:29:19.095Z,10.93
2022-08-22T01:32:23.074Z,12.43
2022-08-22T01:35:26.350Z,13.23
2022-08-22T01:38:07.626Z,12.77
2022-08-22T01:40:53.886Z,12.47
2022-08-22T01:43:58.545Z,15.30
2022-08-22T01:46:30.149Z,15.87
2022-08-22T01:49:04.911Z,15.77
2022-08-22T01:51:39.431Z,16.57
2022-08-22T01:54:11.056Z,16.57
2022-08-22T01:56:41.508Z,17.03
2022-08-22T01:59:11.723Z,17.33
2022-08-22T02:01:48.379Z,18.13
2022-08-22T02:04:21.338Z,17.97
2022-08-22T02:06:53.418Z,17.57
2022-08-22T02:09:40.596Z,16.20
2022-08-22T02:12:22.116Z,16.77
2022-08-22T02:14:55.610Z,15.40
2022-08-22T02:17:25.186Z,17.03
2022-08-22T02:20:08.381Z,18.97
2022-08-22T02:22:44.543Z,20.30
2022-08-22T02:25:14.939Z,18.47
2022-08-22T02:27:50.447Z,22.37
2022-08-22T02:30:20.359Z,19.10
2022-08-22T02:32:55.649Z,19.53
2022-08-22T02:35:28.965Z,20.23
2022-08-22T02:38:04.389Z,20.33
2022-08-22T02:40:35.827Z,20.03
2022-08-22T02:43:18.743Z,20.50
2022-08-22T02:45:50.435Z,20.70
2022-08-22T02:48:22.131Z,19.77
2022-08-22T02:50:58.499Z,19.47
2022-08-22T02:53:33.837Z,19.77
2022-08-22T02:56:05.108Z,20.00
2022-08-22T02:58:39.844Z,19.30
2022-08-22T03:01:37.445Z,19.90
2022-08-22T03:04:23.702Z,20.13
2022-08-22T03:07:09.203Z,18.93
2022-08-22T03:09:41.167Z,22.57
2022-08-22T03:12:13.674Z,19.27
2022-08-22T03:14:44.600Z,20.50
2022-08-22T03:17:16.344Z,19.77
2022-08-22T03:19:51.538Z,19.60
2022-08-22T03:22:23.579Z,18.93
2022-08-22T03:24:55.687Z,15.57
2022-08-22T03:27:31.427Z,17.53
2022-08-22T03:30:03.953Z,17.20
2022-08-22T03:32:51.415Z,18.37
2022-08-22T03:35:28.332Z,19.03
2022-08-22T03:37:59.242Z,18.97
2022-08-22T03:40:31.957Z,17.17
2022-08-22T03:43:22.493Z,17.03
2022-08-22T03:46:20.192Z,17.13
2022-08-22T03:49:28.070Z,17.50
2022-08-22T03:52:07.157Z,18.90
2022-08-22T03:54:47.948Z,16.63
2022-08-22T03:57:44.443Z,18.10
2022-08-22T04:00:33.640Z,19.13
2022-08-22T04:03:40.314Z,20.37
2022-08-22T04:06:19.173Z,20.83
2022-08-22T04:09:08.763Z,21.37
2022-08-22T04:12:08.748Z,21.13
2022-08-22T04:15:04.359Z,23.00
2022-08-22T04:17:50.895Z,24.53
2022-08-22T04:20:27.859Z,25.63
2022-08-22T04:23:28.008Z,25.33
2022-08-22T04:25:58.374Z,22.57
2022-08-22T04:28:31.068Z,23.50
2022-08-22T04:31:02.932Z,23.97
2022-08-22T04:33:34.832Z,23.53
2022-08-22T04:36:04.395Z,23.43
2022-08-22T04:38:34.929Z,24.07
2022-08-22T04:41:10.328Z,22.93
2022-08-22T04:43:40.648Z,24.23
2022-08-22T04:46:12.156Z,24.83
2022-08-22T04:48:42.063Z,25.63
2022-08-22T04:51:12.395Z,25.23
2022-08-22T04:54:05.677Z,23.73
2022-08-22T04:56:39.308Z,23.80
2022-08-22T04:59:10.189Z,24.97
2022-08-22T05:01:43.409Z,26.37
2022-08-22T05:04:13.832Z,25.93
2022-08-22T05:06:48.359Z,26.10
2022-08-22T05:09:20.975Z,25.27
2022-08-22T05:11:49.894Z,26.53
2022-08-22T05:14:19.275Z,27.03
2022-08-22T05:16:50.514Z,26.63
2022-08-22T05:19:28.444Z,26.50
2022-08-22T05:21:59.537Z,26.50
2022-08-22T05:24:30.041Z,26.77
2022-08-22T05:26:58.682Z,25.83
2022-08-22T05:29:29.137Z,26.40
2022-08-22T05:32:00.058Z,25.27
2022-08-22T05:34:29.475Z,26.80
2022-08-22T05:36:58.556Z,26.53
2022-08-22T05:39:28.074Z,26.33
2022-08-22T05:41:59.912Z,27.53
2022-08-22T05:44:29.397Z,27.97
2022-08-22T05:47:01.657Z,25.00
2022-08-22T05:49:33.561Z,26.77
2022-08-22T05:52:07.505Z,25.63
2022-08-22T05:54:42.406Z,27.23
2022-08-22T05:57:12.696Z,29.00
2022-08-22T05:59:42.311Z,27.57
2022-08-22T06:02:13.746Z,27.97
2022-08-22T06:04:51.962Z,29.07
2022-08-22T06:07:21.269Z,28.83
2022-08-22T06:10:15.488Z,29.50
2022-08-22T06:12:47.875Z,30.17
2022-08-22T06:15:21.076Z,29.57
2022-08-22T06:17:51.891Z,30.73
2022-08-22T06:20:21.141Z,30.57
2022-08-22T06:22:52.307Z,30.97
2022-08-22T06:25:23.215Z,32.67
2022-08-22T06:27:51.718Z,33.20
2022-08-22T06:30:20.135Z,31.17
2022-08-22T06:33:00.140Z,33.17
2022-08-22T06:35:50.806Z,30.53
2022-08-22T06:38:19.647Z,31.57
2022-08-22T06:40:48.125Z,31.70
2022-08-22T06:43:16.379Z,31.23
2022-08-22T06:45:44.529Z,30.33
2022-08-22T06:48:17.597Z,31.23
2022-08-22T06:50:46.896Z,30.23
2022-08-22T06:53:16.858Z,30.80
2022-08-22T06:55:47.521Z,31.80
2022-08-22T06:58:17.398Z,29.87
2022-08-22T07:00:51.072Z,28.43
2022-08-22T07:03:33.282Z,29.70
2022-08-22T07:06:01.636Z,27.60
2022-08-22T07:08:33.965Z,27.80
2022-08-22T07:11:08.312Z,25.90
2022-08-22T07:13:36.744Z,26.10
2022-08-22T07:16:07.376Z,25.37
2022-08-22T07:18:47.981Z,26.00
2022-08-22T07:21:25.060Z,27.00
2022-08-22T07:23:53.317Z,25.53
2022-08-22T07:26:28.354Z,23.60
2022-08-22T07:28:58.578Z,26.33
2022-08-22T07:31:37.247Z,25.17
2022-08-22T07:34:32.368Z,25.37
2022-08-22T07:37:01.773Z,25.00
2022-08-22T07:39:31.749Z,27.70
2022-08-22T07:42:08.349Z,25.00
2022-08-22T07:44:38.915Z,25.63
2022-08-22T07:47:09.424Z,27.63
2022-08-22T07:49:41.245Z,26.73
2022-08-22T07:52:17.998Z,23.57
2022-08-22T07:54:48.199Z,22.47
2022-08-22T07:57:17.292Z,22.60
2022-08-22T07:59:48.374Z,22.70
2022-08-22T08:02:17.025Z,24.23
2022-08-22T08:04:46.753Z,23.17
2022-08-22T08:07:15.943Z,23.93
2022-08-22T08:09:45.605Z,28.57
2022-08-22T08:12:13.850Z,28.93
2022-08-22T08:14:44.182Z,25.17
2022-08-22T08:17:17.567Z,27.90
2022-08-22T08:19:48.133Z,23.63
2022-08-22T08:22:17.478Z,24.13
2022-08-22T08:24:45.907Z,26.10
2022-08-22T08:27:32.985Z,26.47
2022-08-22T08:30:02.774Z,30.40
2022-08-22T08:32:33.692Z,33.07
2022-08-22T08:35:06.897Z,32.87
2022-08-22T08:37:39.962Z,27.53
2022-08-22T08:40:13.771Z,28.47
2022-08-22T08:43:19.206Z,29.63
2022-08-22T08:45:56.440Z,27.03
2022-08-22T08:49:02.462Z,24.77
2022-08-22T08:51:53.418Z,27.40
2022-08-22T08:54:44.551Z,27.33
2022-08-22T08:57:19.112Z,26.70
2022-08-22T08:59:50.698Z,26.00
2022-08-22T09:05:53.843Z,31.70
2022-08-22T09:08:47.674Z,27.23
2022-08-22T09:11:46.991Z,27.20
2022-08-22T09:14:27.028Z,25.37
2022-08-22T09:17:18.533Z,26.00
2022-08-22T09:20:19.506Z,30.37
2022-08-22T09:23:10.200Z,26.20
2022-08-22T09:25:41.706Z,33.27
2022-08-22T09:28:13.842Z,36.60
2022-08-22T09:33:59.238Z,29.73
2022-08-22T09:36:30.773Z,30.33
2022-08-22T09:39:05.912Z,30.60
2022-08-22T09:41:40.277Z,29.13
2022-08-22T09:44:17.410Z,29.90
2022-08-22T09:46:54.960Z,31.60
2022-08-22T09:49:28.165Z,33.67
2022-08-22T09:52:05.133Z,38.40
2022-08-22T09:54:45.253Z,36.40
2022-08-22T09:57:22.680Z,34.87
2022-08-22T09:59:58.199Z,36.10
2022-08-22T10:02:31.716Z,28.47
2022-08-22T10:05:07.954Z,29.43
2022-08-22T10:07:52.886Z,32.13
2022-08-22T10:10:27.460Z,31.50
2022-08-22T10:13:01.521Z,30.80
2022-08-22T10:15:33.993Z,35.27
2022-08-22T10:18:10.493Z,38.67
2022-08-22T10:20:47.127Z,41.10
2022-08-22T10:23:18.927Z,36.23
2022-08-22T10:25:51.201Z,39.03
2022-08-22T10:28:32.584Z,39.17
2022-08-22T10:31:12.816Z,39.10
2022-08-22T10:33:44.326Z,38.07
2022-08-22T10:36:14.058Z,41.77
2022-08-22T10:38:46.493Z,45.07
2022-08-22T10:41:20.065Z,46.37
2022-08-22T10:43:56.580Z,44.20
2022-08-22T10:46:31.137Z,44.10
2022-08-22T10:49:00.531Z,41.23
2022-08-22T10:51:40.870Z,39.70
2022-08-22T10:54:42.441Z,42.30
2022-08-22T10:57:29.897Z,43.73
2022-08-22T11:00:03.569Z,45.60
2022-08-22T11:02:42.411Z,38.67
2022-08-22T11:05:28.105Z,32.93
2022-08-22T11:08:15.044Z,34.77
2022-08-22T11:10:58.925Z,35.23
2022-08-22T11:13:29.512Z,34.07
2022-08-22T11:16:04.210Z,37.60
2022-08-22T11:19:02.073Z,35.63
2022-08-22T11:21:37.318Z,35.93
2022-08-22T11:24:22.741Z,34.93
2022-08-22T11:27:00.680Z,33.80
2022-08-22T11:29:39.470Z,34.27
2022-08-22T11:32:15.657Z,33.97
2022-08-22T11:34:53.072Z,34.10
2022-08-22T11:37:43.994Z,31.97
2022-08-22T11:40:34.430Z,33.00
2022-08-22T11:43:17.274Z,31.47
2022-08-22T11:45:48.401Z,30.27
2022-08-22T11:48:23.348Z,32.30
2022-08-22T11:50:54.153Z,31.13
2022-08-22T11:53:28.759Z,29.90
2022-08-22T11:56:05.431Z,29.77
2022-08-22T11:58:45.374Z,28.57
2022-08-22T12:01:17.303Z,23.90
2022-08-22T12:03:58.691Z,24.20
2022-08-22T12:06:47.473Z,23.67
2022-08-22T12:09:55.929Z,23.50
2022-08-22T12:12:33.268Z,21.03
2022-08-22T12:15:05.388Z,23.50
2022-08-22T12:18:02.546Z,23.30
2022-08-22T12:20:57.605Z,23.67
2022-08-22T12:23:50.243Z,23.43
2022-08-22T12:26:23.143Z,25.20
2022-08-22T12:29:00.154Z,24.67
2022-08-22T12:31:32.473Z,25.23
2022-08-22T12:34:07.534Z,25.73
2022-08-22T12:37:05.659Z,28.50
2022-08-22T12:40:16.518Z,28.47
2022-08-22T12:43:03.691Z,32.13
2022-08-22T12:45:54.296Z,30.97
2022-08-22T12:48:31.850Z,35.13
2022-08-22T12:51:17.332Z,34.47
2022-08-22T12:54:27.700Z,36.33
2022-08-22T12:57:01.684Z,36.33
2022-08-22T12:59:31.168Z,37.37
2022-08-22T13:02:00.855Z,35.57
2022-08-22T13:04:33.086Z,37.23
2022-08-22T13:07:10.495Z,39.00
2022-08-22T13:09:39.697Z,40.23
2022-08-22T13:12:22.878Z,37.27
2022-08-22T13:14:53.656Z,37.40
2022-08-22T13:17:24.105Z,36.03
2022-08-22T13:20:02.046Z,36.60
2022-08-22T13:22:31.705Z,35.67
2022-08-22T13:25:02.079Z,35.27
2022-08-22T13:27:36.048Z,35.17
2022-08-22T13:30:06.747Z,37.20
2022-08-22T13:32:44.439Z,36.73
2022-08-22T13:35:19.258Z,38.90
2022-08-22T13:37:53.701Z,37.90
2022-08-22T13:40:25.828Z,36.10
2022-08-22T13:42:58.870Z,36.27
2022-08-22T13:45:28.718Z,36.63
2022-08-22T13:47:59.649Z,36.30
2022-08-22T13:50:52.908Z,37.17
2022-08-22T13:53:25.151Z,36.60
2022-08-22T13:55:56.996Z,35.70
2022-08-22T13:58:31.268Z,35.20
2022-08-22T14:01:07.080Z,33.33
2022-08-22T14:03:39.865Z,32.30
2022-08-22T14:06:35.397Z,34.73
2022-08-22T14:09:04.410Z,34.97
2022-08-22T14:11:39.318Z,36.63
2022-08-22T14:14:09.053Z,36.23
2022-08-22T14:16:39.401Z,34.53
2022-08-22T14:19:10.675Z,33.63
2022-08-22T14:21:42.204Z,34.50
2022-08-22T14:24:19.128Z,34.87
2022-08-22T14:26:57.885Z,32.30
2022-08-22T14:29:31.844Z,32.10
2022-08-22T14:32:02.607Z,31.77
2022-08-22T14:34:31.397Z,31.90
2022-08-22T14:37:03.523Z,33.03
2022-08-22T14:39:37.232Z,33.57
2022-08-22T14:42:14.602Z,34.00
2022-08-22T14:44:49.390Z,34.27
2022-08-22T14:47:54.200Z,34.07
2022-08-22T14:50:39.784Z,34.43
2022-08-22T14:53:12.405Z,36.17
2022-08-22T14:55:41.279Z,34.80
2022-08-22T14:58:16.317Z,33.77
2022-08-22T15:00:47.569Z,35.87
2022-08-22T15:03:24.749Z,33.70
2022-08-22T15:05:54.617Z,35.07
2022-08-22T15:08:28.874Z,34.90
2022-08-22T15:11:14.493Z,34.17
2022-08-22T15:13:44.906Z,35.17
2022-08-22T15:16:19.739Z,35.43
2022-08-22T15:18:52.153Z,33.83
2022-08-22T15:21:24.515Z,33.80
2022-08-22T15:23:54.767Z,33.70
2022-08-22T15:26:30.638Z,34.03
2022-08-22T15:29:09.658Z,34.70
2022-08-22T15:31:43.609Z,34.53
2022-08-22T15:34:21.046Z,36.97
2022-08-22T15:37:29.544Z,36.60
2022-08-22T15:40:12.058Z,34.50
2022-08-22T15:42:42.440Z,35.30
2022-08-22T15:45:20.590Z,36.10
2022-08-22T15:47:53.401Z,36.23
2022-08-22T15:50:32.383Z,33.13
2022-08-22T15:53:15.804Z,36.23
2022-08-22T15:56:20.039Z,33.70
2022-08-22T15:58:50.494Z,33.23
2022-08-22T16:01:22.224Z,35.70
2022-08-22T16:03:57.554Z,38.27
2022-08-22T16:06:42.773Z,40.13
2022-08-22T16:09:12.251Z,37.50
2022-08-22T16:11:40.904Z,35.70
2022-08-22T16:14:21.364Z,31.27
2022-08-22T16:16:55.413Z,30.83
2022-08-22T16:19:25.502Z,28.60
2022-08-22T16:22:12.793Z,26.17
2022-08-22T16:25:01.979Z,28.43
2022-08-22T16:27:30.262Z,27.80
2022-08-22T16:30:10.480Z,26.53
2022-08-22T16:32:38.743Z,25.30
2022-08-22T16:35:08.520Z,28.77
2022-08-22T16:37:51.866Z,28.07
2022-08-22T16:40:25.365Z,28.10
2022-08-22T16:43:12.093Z,31.33
2022-08-22T16:45:41.870Z,30.13
2022-08-22T16:48:35.073Z,31.30
2022-08-22T16:51:15.859Z,32.00
2022-08-22T16:54:08.939Z,33.43
2022-08-22T16:56:57.959Z,33.20
2022-08-22T16:59:43.070Z,36.13
2022-08-22T17:02:43.979Z,35.33
2022-08-22T17:05:36.954Z,36.53
2022-08-22T17:08:27.347Z,35.53
2022-08-22T17:11:02.156Z,33.60
2022-08-22T17:13:50.453Z,33.43
2022-08-22T17:16:29.317Z,34.47
2022-08-22T17:19:05.191Z,37.03
2022-08-22T17:21:38.694Z,37.57
2022-08-22T17:24:33.606Z,43.67
2022-08-22T17:27:05.667Z,43.50
2022-08-22T17:29:43.057Z,44.43
2022-08-22T17:32:16.809Z,41.50
2022-08-22T17:34:50.549Z,41.60
2022-08-22T17:37:23.687Z,39.43
2022-08-22T17:40:01.961Z,39.37
2022-08-22T17:42:44.989Z,38.63
2022-08-22T17:45:28.167Z,37.40
2022-08-22T17:48:00.943Z,31.07
2022-08-22T17:50:34.621Z,32.37
2022-08-22T17:53:04.804Z,31.97
2022-08-22T17:55:38.921Z,29.43
2022-08-22T17:58:37.596Z,27.70
2022-08-22T18:01:10.833Z,25.20
2022-08-22T18:03:41.408Z,26.57
2022-08-22T18:06:12.071Z,26.20
2022-08-22T18:11:38.853Z,23.23
2022-08-22T18:14:11.588Z,22.43
2022-08-22T18:16:45.968Z,20.33
2022-08-22T18:19:17.154Z,19.80
2022-08-22T18:21:52.799Z,18.63
2022-08-22T18:24:23.418Z,18.67
2022-08-22T18:26:56.833Z,18.47
2022-08-22T18:29:26.712Z,17.80
2022-08-22T18:31:56.277Z,16.40
2022-08-22T18:34:30.313Z,14.67
2022-08-22T18:37:01.118Z,13.20
2022-08-22T18:39:31.262Z,12.33
2022-08-22T18:42:05.872Z,12.40
2022-08-22T18:44:35.837Z,11.30
2022-08-22T18:47:12.323Z,11.77
2022-08-22T18:49:44.394Z,11.63
2022-08-22T18:52:14.979Z,12.17
2022-08-22T18:54:49.325Z,11.40
2022-08-22T18:57:32.605Z,11.90
2022-08-22T19:00:12.211Z,11.77
2022-08-22T19:03:15.396Z,11.73
2022-08-22T19:06:19.502Z,12.43
2022-08-22T19:09:17.711Z,12.93
2022-08-22T19:11:51.042Z,13.00
2022-08-22T19:14:34.005Z,12.93
2022-08-22T19:17:26.871Z,12.73
2022-08-22T19:20:16.692Z,14.00
2022-08-22T19:22:45.134Z,16.23
2022-08-22T19:25:26.058Z,16.27
2022-08-22T19:28:22.430Z,17.07
2022-08-22T19:30:52.096Z,16.30
2022-08-22T19:33:27.614Z,17.80
2022-08-22T19:36:09.590Z,17.60
2022-08-22T19:39:09.179Z,18.07
2022-08-22T19:41:42.734Z,18.70
2022-08-22T19:44:12.904Z,18.83
2022-08-22T19:46:42.970Z,18.33
2022-08-22T19:49:27.278Z,18.60
2022-08-22T19:52:03.673Z,20.20
2022-08-22T19:54:32.102Z,19.20
2022-08-22T19:57:07.232Z,20.17
2022-08-22T19:59:43.785Z,20.23
2022-08-22T20:02:27.013Z,21.23
2022-08-22T20:05:04.922Z,21.30
2022-08-22T20:07:53.026Z,20.57
2022-08-22T20:10:28.084Z,21.10
2022-08-22T20:13:04.411Z,21.07
2022-08-22T20:15:34.146Z,21.60
2022-08-22T20:20:59.981Z,21.27
2022-08-22T20:23:29.717Z,21.27
2022-08-22T20:25:57.936Z,23.83
2022-08-22T20:28:35.849Z,23.13
2022-08-22T20:31:05.551Z,25.03
2022-08-22T20:33:36.732Z,24.20
2022-08-22T20:36:06.152Z,24.17
2022-08-22T20:38:55.777Z,23.87
2022-08-22T20:41:25.362Z,25.37
2022-08-22T20:43:55.532Z,23.83
2022-08-22T20:46:43.837Z,23.97
2022-08-22T20:49:16.054Z,24.47
2022-08-22T20:51:52.016Z,25.20
2022-08-22T20:54:21.172Z,25.10
2022-08-22T20:56:53.162Z,26.63
2022-08-22T20:59:30.918Z,26.07
2022-08-22T21:02:05.183Z,27.50
2022-08-22T21:04:46.080Z,26.83
2022-08-22T21:07:18.236Z,25.20
2022-08-22T21:10:04.632Z,32.37
2022-08-22T21:12:32.930Z,30.10
2022-08-22T21:15:02.880Z,27.40
2022-08-22T21:17:33.682Z,26.87
2022-08-22T21:20:19.436Z,21.90
2022-08-22T21:22:47.712Z,19.27
2022-08-22T21:25:16.008Z,17.43
2022-08-22T21:27:47.038Z,14.93
2022-08-22T21:30:22.679Z,14.97
2022-08-22T21:32:55.157Z,16.87
2022-08-22T21:35:28.873Z,17.27
2022-08-22T21:37:57.232Z,16.97
2022-08-22T21:40:31.804Z,16.03
2022-08-22T21:43:05.622Z,15.60
2022-08-22T21:45:35.280Z,14.73
2022-08-22T21:48:03.544Z,16.17
2022-08-22T21:50:38.440Z,16.63
2022-08-22T21:53:13.098Z,15.13
2022-08-22T21:55:44.608Z,14.00
2022-08-22T21:58:35.736Z,13.90
2022-08-22T22:01:20.445Z,11.73
2022-08-22T22:03:53.177Z,13.37
2022-08-22T22:06:22.945Z,13.17
2022-08-22T22:08:51.261Z,13.40
2022-08-22T22:11:19.498Z,13.83
2022-08-22T22:13:47.774Z,12.03
2022-08-22T22:16:16.259Z,11.23
2022-08-22T22:18:44.499Z,11.23
2022-08-22T22:21:12.688Z,10.83
2022-08-22T22:23:42.572Z,10.50
2022-08-22T22:26:11.261Z,10.23
2022-08-22T22:28:41.287Z,9.60
2022-08-22T22:31:09.642Z,10.03
2022-08-22T22:33:39.213Z,10.60
2022-08-22T22:36:09.083Z,9.80
2022-08-22T22:38:37.375Z,10.57
2022-08-22T22:41:07.020Z,10.70
2022-08-22T22:43:35.336Z,10.33
2022-08-22T22:46:03.609Z,10.90
2022-08-22T22:48:31.813Z,11.10
2022-08-22T22:51:00.154Z,11.47
2022-08-22T22:53:38.372Z,9.33
2022-08-22T22:56:11.631Z,9.77
2022-08-22T22:58:40.259Z,9.53
2022-08-22T23:01:09.604Z,10.20
2022-08-22T23:03:38.016Z,9.77
2022-08-22T23:06:06.500Z,10.97
2022-08-22T23:08:34.635Z,11.07
2022-08-22T23:11:10.742Z,12.00
2022-08-22T23:13:39.706Z,11.93
2022-08-22T23:16:10.338Z,11.83
2022-08-22T23:18:38.750Z,10.83
2022-08-22T23:21:13.649Z,11.80
2022-08-22T23:23:41.873Z,10.93
2022-08-22T23:26:11.940Z,11.13
2022-08-22T23:28:40.278Z,10.37
2022-08-22T23:31:13.357Z,10.70
2022-08-22T23:33:41.811Z,11.10
2022-08-22T23:36:14.224Z,11.23
2022-08-22T23:38:42.508Z,11.60
2022-08-22T23:41:12.689Z,11.53
2022-08-22T23:43:42.597Z,11.87
2022-08-22T23:46:11.016Z,12.07
2022-08-22T23:48:39.293Z,11.23
2022-08-22T23:51:07.870Z,10.27
2022-08-22T23:53:36.028Z,10.93
2022-08-22T23:56:19.791Z,11.23
2022-08-22T23:58:49.080Z,10.57
